createdAt,value
2023-03-22T00:02:02.760Z,12.25
2023-03-22T00:04:34.424Z,12.38
2023-03-22T00:07:06.147Z,12.40
2023-03-22T00:09:37.829Z,12.27
2023-03-22T00:12:09.706Z,16.55
2023-03-22T00:14:41.520Z,15.02
2023-03-22T00:17:13.202Z,16.58
2023-03-22T00:19:45.028Z,11.05
2023-03-22T00:22:17.788Z,10.38
2023-03-22T00:24:49.480Z,11.77
2023-03-22T00:27:21.158Z,12.18
2023-03-22T00:29:53.200Z,11.85
2023-03-22T00:32:24.894Z,14.57
2023-03-22T00:34:58.862Z,10.57
2023-03-22T00:37:38.811Z,11.77
2023-03-22T00:40:14.245Z,12.25
2023-03-22T00:42:46.094Z,10.52
2023-03-22T00:45:17.808Z,9.07
2023-03-22T00:47:49.545Z,12.00
2023-03-22T00:50:23.209Z,9.83
2023-03-22T00:52:55.067Z,12.45
2023-03-22T00:55:27.865Z,11.13
2023-03-22T00:57:59.667Z,10.88
2023-03-22T01:00:33.628Z,10.82
2023-03-22T01:03:05.594Z,12.13
2023-03-22T01:05:37.765Z,12.15
2023-03-22T01:08:10.554Z,8.20
2023-03-22T01:10:43.802Z,9.85
2023-03-22T01:13:17.851Z,9.73
2023-03-22T01:15:51.168Z,10.25
2023-03-22T01:18:23.456Z,12.52
2023-03-22T01:20:55.408Z,12.70
2023-03-22T01:23:27.618Z,11.45
2023-03-22T01:25:59.811Z,11.75
2023-03-22T01:28:31.596Z,9.43
2023-03-22T01:31:04.079Z,13.10
2023-03-22T01:33:36.732Z,11.68
2023-03-22T01:36:08.688Z,11.38
2023-03-22T01:38:41.016Z,14.50
2023-03-22T01:41:12.934Z,9.88
2023-03-22T01:44:13.733Z,12.80
2023-03-22T01:46:47.829Z,10.65
2023-03-22T01:49:31.219Z,10.88
2023-03-22T01:52:14.685Z,13.15
2023-03-22T01:54:55.011Z,13.07
2023-03-22T01:57:40.932Z,13.63
2023-03-22T02:00:19.005Z,11.30
2023-03-22T02:03:19.012Z,10.45
2023-03-22T02:05:53.965Z,12.00
2023-03-22T02:08:29.061Z,11.95
2023-03-22T02:11:04.815Z,11.77
2023-03-22T02:13:51.816Z,13.77
2023-03-22T02:17:01.217Z,11.18
2023-03-22T02:19:45.564Z,11.63
2023-03-22T02:22:42.371Z,10.85
2023-03-22T02:25:51.941Z,10.77
2023-03-22T02:28:54.327Z,10.40
2023-03-22T02:31:51.184Z,11.70
2023-03-22T02:34:44.342Z,11.48
2023-03-22T02:37:37.724Z,8.80
2023-03-22T02:40:18.688Z,9.77
2023-03-22T02:43:08.324Z,12.25
2023-03-22T02:45:55.637Z,11.73
2023-03-22T02:48:32.486Z,10.27
2023-03-22T02:51:13.424Z,11.73
2023-03-22T02:53:57.955Z,12.50
2023-03-22T02:56:39.213Z,14.30
2023-03-22T02:59:15.965Z,10.90
2023-03-22T03:01:52.316Z,12.65
2023-03-22T03:04:37.477Z,11.65
2023-03-22T03:09:49.153Z,10.18
2023-03-22T03:12:26.189Z,11.35
2023-03-22T03:15:00.529Z,10.70
2023-03-22T03:17:35.190Z,12.35
2023-03-22T03:23:07.323Z,11.77
2023-03-22T03:26:01.603Z,9.13
2023-03-22T03:29:05.669Z,12.05
2023-03-22T03:31:46.403Z,9.82
2023-03-22T03:34:36.272Z,9.93
2023-03-22T03:37:15.066Z,13.30
2023-03-22T03:40:01.696Z,11.70
2023-03-22T03:42:34.530Z,10.68
2023-03-22T03:45:08.469Z,12.82
2023-03-22T03:47:41.052Z,10.90
2023-03-22T03:50:16.206Z,10.90
2023-03-22T03:52:52.366Z,10.20
2023-03-22T03:55:27.168Z,9.85
2023-03-22T03:57:58.988Z,11.00
2023-03-22T04:00:31.133Z,13.02
2023-03-22T04:03:31.503Z,13.35
2023-03-22T04:06:18.088Z,14.90
2023-03-22T04:08:56.684Z,10.32
2023-03-22T04:11:32.767Z,8.45
2023-03-22T04:14:07.083Z,8.60
2023-03-22T04:16:38.810Z,11.32
2023-03-22T04:19:14.554Z,11.15
2023-03-22T04:21:46.355Z,13.55
2023-03-22T04:24:18.129Z,10.70
2023-03-22T04:26:52.706Z,13.20
2023-03-22T04:29:32.121Z,12.73
2023-03-22T04:32:19.523Z,10.45
2023-03-22T04:34:52.680Z,13.48
2023-03-22T04:37:27.161Z,11.73
2023-03-22T04:40:16.545Z,12.82
2023-03-22T04:43:05.092Z,9.68
2023-03-22T04:46:01.736Z,11.10
2023-03-22T04:48:41.748Z,10.45
2023-03-22T04:51:16.118Z,10.55
2023-03-22T04:54:00.319Z,10.77
2023-03-22T04:56:32.134Z,12.98
2023-03-22T04:59:04.629Z,9.20
2023-03-22T05:01:37.581Z,12.73
2023-03-22T05:04:21.934Z,9.80
2023-03-22T05:06:58.453Z,10.75
2023-03-22T05:09:37.709Z,12.32
2023-03-22T05:12:09.500Z,13.68
2023-03-22T05:14:51.448Z,11.43
2023-03-22T05:17:27.924Z,14.77
2023-03-22T05:20:09.317Z,10.02
2023-03-22T05:22:45.315Z,10.73
2023-03-22T05:25:17.032Z,9.98
2023-03-22T05:27:54.168Z,10.40
2023-03-22T05:30:52.073Z,10.45
2023-03-22T05:33:34.781Z,11.95
2023-03-22T05:36:08.952Z,14.98
2023-03-22T05:38:52.434Z,10.13
2023-03-22T05:41:24.500Z,15.85
2023-03-22T05:43:56.371Z,13.50
2023-03-22T05:46:28.468Z,11.98
2023-03-22T05:49:31.803Z,12.80
2023-03-22T05:52:06.080Z,11.18
2023-03-22T05:54:56.822Z,13.18
2023-03-22T05:57:30.156Z,10.38
2023-03-22T06:00:02.594Z,10.65
2023-03-22T06:02:47.295Z,11.93
2023-03-22T06:05:21.069Z,11.07
2023-03-22T06:10:28.122Z,10.90
2023-03-22T06:13:00.418Z,9.65
2023-03-22T06:15:36.214Z,10.18
2023-03-22T06:18:28.279Z,10.20
2023-03-22T06:21:07.401Z,9.07
2023-03-22T06:23:39.235Z,11.00
2023-03-22T06:26:13.300Z,15.85
2023-03-22T06:28:46.893Z,11.30
2023-03-22T06:31:18.706Z,9.77
2023-03-22T06:33:57.734Z,9.55
2023-03-22T06:36:36.029Z,9.63
2023-03-22T06:39:17.872Z,7.88
2023-03-22T06:41:50.720Z,9.15
2023-03-22T06:44:22.999Z,8.05
2023-03-22T06:47:10.556Z,11.93
2023-03-22T06:49:58.814Z,8.30
2023-03-22T06:52:42.173Z,9.63
2023-03-22T06:55:13.951Z,9.80
2023-03-22T06:57:45.678Z,12.10
2023-03-22T07:00:17.708Z,14.23
2023-03-22T07:02:52.231Z,11.98
2023-03-22T07:05:41.104Z,10.73
2023-03-22T07:08:12.933Z,12.88
2023-03-22T07:10:53.021Z,9.98
2023-03-22T07:13:28.792Z,9.13
2023-03-22T07:16:05.216Z,10.35
2023-03-22T07:18:58.256Z,8.52
2023-03-22T07:21:30.052Z,11.27
2023-03-22T07:24:07.803Z,8.35
2023-03-22T07:26:40.958Z,10.57
2023-03-22T07:29:14.464Z,8.10
2023-03-22T07:31:46.265Z,7.07
2023-03-22T07:34:28.180Z,8.10
2023-03-22T07:37:07.414Z,8.98
2023-03-22T07:39:39.520Z,7.65
2023-03-22T07:42:11.826Z,7.18
2023-03-22T07:44:52.517Z,8.60
2023-03-22T07:47:39.520Z,7.55
2023-03-22T07:50:23.791Z,8.70
2023-03-22T07:53:00.377Z,12.88
2023-03-22T07:55:32.226Z,9.27
2023-03-22T07:58:04.481Z,6.32
2023-03-22T08:00:36.234Z,11.02
2023-03-22T08:03:43.025Z,6.93
2023-03-22T08:06:37.185Z,7.90
2023-03-22T08:09:09.146Z,6.00
2023-03-22T08:11:41.298Z,5.93
2023-03-22T08:14:13.931Z,7.55
2023-03-22T08:16:46.438Z,6.55
2023-03-22T08:19:18.640Z,13.70
2023-03-22T08:21:51.573Z,9.20
2023-03-22T08:24:49.138Z,7.22
2023-03-22T08:30:06.800Z,5.68
2023-03-22T08:32:41.384Z,13.75
2023-03-22T08:35:13.349Z,5.43
2023-03-22T08:37:46.191Z,5.72
2023-03-22T08:40:19.403Z,7.03
2023-03-22T08:42:56.790Z,6.20
2023-03-22T08:45:29.109Z,6.25
2023-03-22T08:48:09.664Z,7.10
2023-03-22T08:51:01.144Z,6.97
2023-03-22T08:53:42.102Z,10.05
2023-03-22T08:56:49.234Z,5.43
2023-03-22T08:59:41.147Z,6.35
2023-03-22T09:02:27.502Z,5.63
2023-03-22T09:05:00.561Z,6.73
2023-03-22T09:07:32.479Z,4.35
2023-03-22T09:10:16.801Z,7.70
2023-03-22T09:12:51.399Z,8.88
2023-03-22T09:15:23.272Z,5.10
2023-03-22T09:18:09.598Z,4.93
2023-03-22T09:20:41.592Z,8.15
2023-03-22T09:23:15.548Z,6.38
2023-03-22T09:25:48.678Z,3.63
2023-03-22T09:28:25.340Z,3.95
2023-03-22T09:31:03.451Z,3.63
2023-03-22T09:33:38.847Z,3.88
2023-03-22T09:36:11.989Z,3.03
2023-03-22T09:38:45.403Z,6.43
2023-03-22T09:43:59.775Z,4.97
2023-03-22T09:46:38.839Z,6.05
2023-03-22T09:49:26.186Z,6.47
2023-03-22T09:51:59.995Z,8.30
2023-03-22T09:54:35.941Z,4.68
2023-03-22T09:57:16.324Z,3.80
2023-03-22T10:00:15.609Z,7.47
2023-03-22T10:03:02.642Z,5.22
2023-03-22T10:05:48.283Z,8.05
2023-03-22T10:08:48.326Z,7.30
2023-03-22T10:11:32.033Z,4.50
2023-03-22T10:14:09.432Z,6.40
2023-03-22T10:16:41.806Z,4.47
2023-03-22T10:19:29.076Z,3.20
2023-03-22T10:22:04.057Z,10.85
2023-03-22T10:24:38.453Z,8.88
2023-03-22T10:27:17.423Z,4.20
2023-03-22T10:29:54.900Z,5.95
2023-03-22T10:32:57.500Z,5.82
2023-03-22T10:35:31.735Z,3.28
2023-03-22T10:38:07.370Z,5.32
2023-03-22T10:40:42.222Z,4.95
2023-03-22T10:43:30.121Z,3.75
2023-03-22T10:46:07.648Z,4.35
2023-03-22T10:48:45.538Z,3.42
2023-03-22T10:51:30.729Z,92.40
2023-03-22T10:54:03.367Z,82.33
2023-03-22T10:56:35.035Z,82.30
2023-03-22T10:59:06.789Z,83.10
2023-03-22T11:01:44.899Z,83.37
2023-03-22T11:04:17.181Z,80.53
2023-03-22T11:06:53.347Z,83.13
2023-03-22T11:09:26.472Z,77.93
2023-03-22T11:12:01.480Z,77.43
2023-03-22T11:14:36.870Z,74.23
2023-03-22T11:17:14.246Z,76.77
2023-03-22T11:20:01.288Z,74.20
2023-03-22T11:22:45.370Z,75.57
2023-03-22T11:25:28.419Z,73.88
2023-03-22T11:28:16.746Z,77.20
2023-03-22T11:31:08.740Z,79.00
2023-03-22T11:33:58.208Z,77.80
2023-03-22T11:36:30.022Z,76.13
2023-03-22T11:39:07.386Z,74.60
2023-03-22T11:41:40.866Z,78.43
2023-03-22T11:44:16.610Z,77.57
2023-03-22T11:47:00.770Z,76.13
2023-03-22T11:49:45.563Z,71.72
2023-03-22T11:52:22.916Z,70.67
2023-03-22T11:54:56.234Z,70.83
2023-03-22T11:57:31.547Z,69.00
2023-03-22T12:00:18.211Z,75.53
2023-03-22T12:02:54.941Z,69.40
2023-03-22T12:05:41.465Z,72.27
2023-03-22T12:08:25.307Z,70.60
2023-03-22T12:11:17.831Z,70.63
2023-03-22T12:14:00.097Z,71.07
2023-03-22T12:16:41.029Z,67.53
2023-03-22T12:19:41.835Z,68.73
2023-03-22T12:22:23.201Z,69.40
2023-03-22T12:24:54.879Z,67.00
2023-03-22T12:27:42.588Z,68.67
2023-03-22T12:30:22.027Z,70.50
2023-03-22T12:33:00.116Z,67.37
2023-03-22T12:35:35.184Z,65.10
2023-03-22T12:38:36.735Z,69.43
2023-03-22T12:41:14.891Z,66.73
2023-03-22T12:43:56.609Z,62.90
2023-03-22T12:46:40.102Z,68.13
2023-03-22T12:49:44.350Z,61.50
2023-03-22T12:52:19.056Z,65.27
2023-03-22T12:54:52.576Z,46.87
2023-03-22T12:57:24.575Z,16.48
2023-03-22T13:00:00.446Z,3.63
2023-03-22T13:02:34.359Z,3.30
2023-03-22T13:05:09.372Z,3.00
2023-03-22T13:07:47.086Z,14.82
2023-03-22T13:10:31.205Z,92.22
2023-03-22T13:13:14.764Z,70.57
2023-03-22T13:16:09.621Z,62.03
2023-03-22T13:21:19.310Z,60.10
2023-03-22T13:24:01.994Z,62.40
2023-03-22T13:26:43.679Z,62.63
2023-03-22T13:29:17.609Z,61.53
2023-03-22T13:31:52.374Z,63.58
2023-03-22T13:34:32.214Z,59.30
2023-03-22T13:37:09.935Z,60.27
2023-03-22T13:39:41.698Z,61.10
2023-03-22T13:42:20.015Z,63.97
2023-03-22T13:44:57.066Z,58.97
2023-03-22T13:47:36.176Z,59.63
2023-03-22T13:50:23.476Z,58.50
2023-03-22T13:53:15.785Z,61.10
2023-03-22T13:55:51.416Z,61.03
2023-03-22T13:58:49.989Z,61.53
2023-03-22T14:01:29.370Z,62.83
2023-03-22T14:04:06.887Z,56.20
2023-03-22T14:06:54.251Z,59.20
2023-03-22T14:09:35.868Z,57.30
2023-03-22T14:12:21.245Z,60.10
2023-03-22T14:14:57.055Z,62.03
2023-03-22T14:17:47.051Z,56.57
2023-03-22T14:20:23.388Z,60.07
